createdAt,value
2023-04-03T00:00:41.387Z,4.18
2023-04-03T00:03:08.235Z,3.80
2023-04-03T00:05:34.951Z,3.75
2023-04-03T00:08:02.960Z,3.70
2023-04-03T00:10:29.736Z,3.80
2023-04-03T00:12:56.407Z,3.15
2023-04-03T00:15:23.049Z,3.42
2023-04-03T00:17:49.766Z,3.50
2023-04-03T00:20:16.795Z,3.38
2023-04-03T00:22:43.486Z,3.80
2023-04-03T00:25:10.753Z,3.97
2023-04-03T00:27:38.859Z,3.22
2023-04-03T00:30:06.309Z,3.13
2023-04-03T00:32:33.231Z,3.03
2023-04-03T00:34:59.917Z,2.88
2023-04-03T00:37:26.574Z,3.13
2023-04-03T00:39:53.230Z,3.15
2023-04-03T00:42:20.001Z,3.40
2023-04-03T00:44:46.626Z,2.38
2023-04-03T00:47:16.866Z,3.30
2023-04-03T00:49:44.676Z,2.70
2023-04-03T00:52:16.619Z,2.95
2023-04-03T00:54:44.694Z,2.33
2023-04-03T00:57:12.620Z,2.58
2023-04-03T00:59:47.570Z,2.65
2023-04-03T01:02:14.276Z,3.22
2023-04-03T01:04:43.990Z,2.85
2023-04-03T01:07:23.209Z,2.17
2023-04-03T01:09:53.533Z,2.65
2023-04-03T01:12:21.924Z,2.75
2023-04-03T01:14:54.890Z,2.78
2023-04-03T01:17:43.572Z,2.67
2023-04-03T01:20:44.036Z,2.08
2023-04-03T01:23:10.763Z,1.95
2023-04-03T01:25:57.644Z,2.53
2023-04-03T01:28:29.154Z,2.28
2023-04-03T01:30:55.834Z,2.08
2023-04-03T01:33:22.557Z,2.20
2023-04-03T01:35:49.432Z,2.60
2023-04-03T01:38:16.956Z,2.47
2023-04-03T01:40:43.618Z,1.80
2023-04-03T01:43:10.421Z,2.30
2023-04-03T01:45:37.125Z,2.08
2023-04-03T01:48:04.659Z,2.10
2023-04-03T01:50:31.309Z,2.00
2023-04-03T01:52:58.226Z,2.13
2023-04-03T01:55:24.904Z,1.98
2023-04-03T01:57:51.613Z,2.08
2023-04-03T02:00:18.436Z,2.75
2023-04-03T02:02:45.389Z,2.50
2023-04-03T02:05:12.062Z,2.10
2023-04-03T02:07:38.709Z,2.72
2023-04-03T02:10:05.974Z,2.25
2023-04-03T02:12:32.626Z,2.08
2023-04-03T02:14:59.305Z,3.03
2023-04-03T02:17:26.080Z,2.00
2023-04-03T02:19:52.737Z,2.30
2023-04-03T02:22:20.133Z,1.98
2023-04-03T02:24:46.905Z,2.30
2023-04-03T02:27:13.560Z,1.95
2023-04-03T02:29:40.404Z,2.25
2023-04-03T02:32:07.051Z,1.95
2023-04-03T02:34:33.685Z,1.63
2023-04-03T02:37:00.522Z,2.55
2023-04-03T02:39:27.203Z,2.15
2023-04-03T02:41:53.848Z,2.88
2023-04-03T02:44:20.534Z,2.25
2023-04-03T02:46:47.434Z,2.38
2023-04-03T02:49:14.133Z,2.88
2023-04-03T02:51:40.811Z,2.10
2023-04-03T02:54:07.628Z,2.10
2023-04-03T02:56:34.560Z,2.58
2023-04-03T02:59:01.459Z,2.08
2023-04-03T03:01:32.285Z,3.65
2023-04-03T03:03:59.962Z,2.60
2023-04-03T03:06:26.920Z,2.38
2023-04-03T03:08:53.892Z,2.35
2023-04-03T03:11:20.905Z,2.22
2023-04-03T03:13:47.726Z,1.95
2023-04-03T03:16:14.440Z,2.10
2023-04-03T03:18:41.113Z,2.83
2023-04-03T03:21:07.794Z,2.40
2023-04-03T03:23:34.536Z,2.95
2023-04-03T03:26:04.375Z,2.20
2023-04-03T03:28:31.334Z,2.22
2023-04-03T03:30:58.964Z,2.70
2023-04-03T03:33:27.006Z,2.35
2023-04-03T03:35:55.273Z,2.75
2023-04-03T03:38:22.570Z,2.53
2023-04-03T03:40:50.650Z,2.88
2023-04-03T03:43:18.040Z,2.72
2023-04-03T03:45:45.394Z,2.75
2023-04-03T03:48:12.550Z,2.00
2023-04-03T03:50:39.181Z,2.47
2023-04-03T03:53:06.141Z,2.30
2023-04-03T03:55:32.770Z,3.00
2023-04-03T03:57:59.507Z,2.55
2023-04-03T04:00:26.188Z,2.78
2023-04-03T04:02:52.912Z,2.53
2023-04-03T04:05:19.686Z,2.70
2023-04-03T04:07:46.516Z,2.70
2023-04-03T04:10:14.662Z,2.35
2023-04-03T04:12:41.473Z,2.70
2023-04-03T04:15:08.722Z,2.55
2023-04-03T04:17:36.209Z,2.50
2023-04-03T04:20:05.975Z,2.35
2023-04-03T04:22:32.614Z,2.97
2023-04-03T04:24:59.250Z,2.83
2023-04-03T04:27:25.947Z,3.13
2023-04-03T04:29:52.612Z,2.60
2023-04-03T04:32:21.276Z,2.50
2023-04-03T04:34:47.953Z,2.90
2023-04-03T04:37:14.620Z,3.15
2023-04-03T04:39:41.246Z,3.35
2023-04-03T04:44:40.853Z,2.53
2023-04-03T04:47:07.874Z,2.55
2023-04-03T04:49:34.563Z,2.72
2023-04-03T04:52:01.202Z,2.45
2023-04-03T04:54:27.912Z,2.35
2023-04-03T04:56:56.780Z,2.70
2023-04-03T04:59:23.497Z,2.40
2023-04-03T05:01:50.662Z,2.55
2023-04-03T05:04:18.079Z,2.47
2023-04-03T05:06:44.798Z,2.70
2023-04-03T05:09:11.448Z,2.63
2023-04-03T05:11:38.092Z,2.72
2023-04-03T05:14:07.317Z,2.78
2023-04-03T05:16:35.113Z,2.33
2023-04-03T05:19:01.863Z,3.13
2023-04-03T05:21:33.001Z,3.00
2023-04-03T05:24:03.984Z,3.03
2023-04-03T05:28:59.851Z,2.90
2023-04-03T05:31:26.545Z,2.20
2023-04-03T05:33:53.259Z,2.22
2023-04-03T05:36:20.166Z,2.97
2023-04-03T05:38:47.201Z,3.35
2023-04-03T05:41:15.638Z,3.50
2023-04-03T05:43:42.579Z,3.65
2023-04-03T05:46:13.826Z,3.17
2023-04-03T05:48:40.790Z,3.08
2023-04-03T05:51:08.762Z,3.20
2023-04-03T05:53:40.296Z,3.03
2023-04-03T05:56:07.163Z,2.90
2023-04-03T05:58:34.358Z,3.25
2023-04-03T06:01:02.170Z,2.60
2023-04-03T06:03:28.976Z,3.15
2023-04-03T06:05:55.852Z,3.03
2023-04-03T06:08:24.752Z,3.55
2023-04-03T06:10:52.891Z,3.33
2023-04-03T06:13:19.559Z,2.55
2023-04-03T06:15:47.608Z,3.47
2023-04-03T06:18:15.527Z,3.25
2023-04-03T06:20:43.095Z,3.60
2023-04-03T06:23:09.795Z,2.80
2023-04-03T06:25:36.441Z,3.25
2023-04-03T06:28:06.163Z,3.58
2023-04-03T06:30:32.815Z,3.33
2023-04-03T06:33:02.385Z,3.45
2023-04-03T06:35:31.198Z,2.65
2023-04-03T06:37:58.048Z,3.60
2023-04-03T06:40:30.389Z,3.60
2023-04-03T06:42:57.219Z,3.80
2023-04-03T06:45:25.838Z,3.97
2023-04-03T06:47:52.484Z,3.47
2023-04-03T06:50:19.207Z,4.28
2023-04-03T06:52:46.587Z,3.42
2023-04-03T06:55:15.051Z,4.03
2023-04-03T06:57:41.858Z,3.13
2023-04-03T07:00:12.648Z,3.42
2023-04-03T07:02:39.342Z,4.05
2023-04-03T07:05:07.091Z,3.60
2023-04-03T07:07:35.046Z,3.50
2023-04-03T07:10:02.591Z,3.55
2023-04-03T07:12:30.865Z,3.45
2023-04-03T07:14:57.529Z,3.45
2023-04-03T07:17:25.827Z,4.13
2023-04-03T07:19:52.672Z,3.60
2023-04-03T07:22:19.891Z,3.88
2023-04-03T07:24:47.184Z,4.18
2023-04-03T07:27:14.062Z,3.85
2023-04-03T07:29:41.060Z,3.88
2023-04-03T07:32:08.037Z,3.60
2023-04-03T07:34:35.003Z,3.60
2023-04-03T07:37:03.108Z,3.75
2023-04-03T07:39:30.171Z,3.55
2023-04-03T07:41:57.148Z,3.75
2023-04-03T07:44:23.848Z,3.42
2023-04-03T07:46:51.472Z,4.35
2023-04-03T07:49:19.951Z,3.80
2023-04-03T07:51:49.034Z,3.88
2023-04-03T07:54:16.347Z,3.47
2023-04-03T07:56:43.868Z,3.00
2023-04-03T07:59:12.132Z,3.53
2023-04-03T08:01:40.814Z,3.58
2023-04-03T08:04:07.852Z,3.50
2023-04-03T08:06:46.474Z,3.40
2023-04-03T08:09:16.077Z,3.40
2023-04-03T08:11:45.509Z,3.33
2023-04-03T08:14:17.416Z,3.47
2023-04-03T08:16:46.601Z,4.10
2023-04-03T08:19:22.345Z,3.85
2023-04-03T08:21:54.489Z,3.22
2023-04-03T08:24:21.353Z,3.35
2023-04-03T08:26:47.985Z,3.38
2023-04-03T08:29:14.702Z,2.90
2023-04-03T08:31:43.269Z,3.40
2023-04-03T08:34:12.181Z,3.47
2023-04-03T08:36:38.801Z,3.22
2023-04-03T08:39:07.455Z,4.20
2023-04-03T08:41:43.451Z,3.45
2023-04-03T08:44:20.857Z,3.35
2023-04-03T08:46:50.550Z,3.30
2023-04-03T08:49:48.825Z,3.03
2023-04-03T08:52:20.129Z,3.08
2023-04-03T08:54:51.718Z,3.30
2023-04-03T08:57:27.637Z,2.97
2023-04-03T08:59:56.738Z,2.78
2023-04-03T09:02:33.419Z,3.15
2023-04-03T09:05:01.478Z,3.03
2023-04-03T09:07:42.931Z,2.97
2023-04-03T09:10:15.083Z,2.85
2023-04-03T09:12:51.507Z,2.75
2023-04-03T09:15:37.810Z,2.97
2023-04-03T09:18:23.625Z,2.60
2023-04-03T09:21:21.741Z,2.53
2023-04-03T09:23:53.169Z,2.95
2023-04-03T09:26:30.263Z,3.13
2023-04-03T09:29:01.492Z,3.03
2023-04-03T09:31:36.117Z,3.10
2023-04-03T09:34:07.841Z,3.30
2023-04-03T09:36:46.555Z,2.90
2023-04-03T09:39:30.985Z,3.30
2023-04-03T09:42:21.165Z,3.47
2023-04-03T09:44:59.180Z,2.93
2023-04-03T09:47:37.217Z,3.05
2023-04-03T09:50:23.117Z,3.83
2023-04-03T09:52:52.734Z,3.38
2023-04-03T09:55:30.072Z,2.67
2023-04-03T09:58:03.146Z,3.20
2023-04-03T10:00:38.261Z,2.80
2023-04-03T10:03:06.745Z,3.33
2023-04-03T10:05:42.455Z,3.15
2023-04-03T10:08:14.947Z,3.72
2023-04-03T10:10:44.253Z,2.92
2023-04-03T10:13:21.183Z,3.03
2023-04-03T10:15:58.931Z,2.78
2023-04-03T10:18:57.474Z,2.78
2023-04-03T10:21:44.276Z,3.10
2023-04-03T10:24:20.649Z,2.70
2023-04-03T10:27:28.651Z,3.20
2023-04-03T10:30:15.905Z,3.00
2023-04-03T10:33:13.463Z,2.90
2023-04-03T10:36:02.703Z,3.22
2023-04-03T10:38:41.578Z,2.90
2023-04-03T10:41:40.317Z,3.17
2023-04-03T10:44:25.981Z,2.97
2023-04-03T10:47:12.099Z,3.05
2023-04-03T10:50:03.058Z,2.67
2023-04-03T10:55:29.549Z,3.33
2023-04-03T10:57:59.712Z,2.78
2023-04-03T11:00:44.721Z,2.92
2023-04-03T11:03:19.849Z,3.50
2023-04-03T11:05:54.731Z,3.03
2023-04-03T11:08:33.710Z,3.60
2023-04-03T11:11:09.313Z,3.05
2023-04-03T11:13:42.068Z,3.45
2023-04-03T11:16:09.304Z,3.70
2023-04-03T11:18:43.330Z,3.15
2023-04-03T11:21:22.738Z,3.72
2023-04-03T11:23:51.051Z,3.35
2023-04-03T11:26:26.390Z,3.05
2023-04-03T11:28:59.187Z,2.92
2023-04-03T11:31:35.869Z,3.10
2023-04-03T11:34:54.970Z,3.47
2023-04-03T11:37:38.817Z,3.17
2023-04-03T11:40:36.550Z,2.80
2023-04-03T11:43:21.661Z,3.03
2023-04-03T11:45:57.677Z,3.10
2023-04-03T11:48:36.498Z,3.35
2023-04-03T11:51:29.023Z,3.20
2023-04-03T11:54:15.800Z,2.30
2023-04-03T11:56:42.439Z,3.03
2023-04-03T11:59:12.600Z,3.10
2023-04-03T12:01:47.785Z,3.10
2023-04-03T12:04:16.810Z,3.33
2023-04-03T12:06:49.984Z,2.88
2023-04-03T12:09:37.853Z,2.75
2023-04-03T12:12:27.066Z,3.15
2023-04-03T12:14:53.843Z,3.05
2023-04-03T12:17:28.435Z,2.65
2023-04-03T12:19:55.187Z,2.67
2023-04-03T12:22:22.475Z,2.42
2023-04-03T12:24:52.711Z,2.33
2023-04-03T12:27:30.029Z,2.53
2023-04-03T12:30:22.203Z,2.53
2023-04-03T12:33:29.208Z,2.13
2023-04-03T12:36:12.324Z,2.58
2023-04-03T12:39:07.012Z,2.35
2023-04-03T12:41:44.716Z,2.45
2023-04-03T12:44:50.618Z,2.55
2023-04-03T12:47:27.411Z,2.17
2023-04-03T12:49:56.155Z,2.22
2023-04-03T12:52:44.846Z,1.90
2023-04-03T12:55:20.085Z,2.00
2023-04-03T12:57:47.498Z,2.20
2023-04-03T13:00:21.441Z,2.00
2023-04-03T13:02:48.723Z,2.25
2023-04-03T13:05:19.753Z,2.58
2023-04-03T13:07:55.233Z,1.80
2023-04-03T13:10:23.414Z,2.00
2023-04-03T13:13:10.691Z,2.60
2023-04-03T13:15:46.643Z,2.00
2023-04-03T13:18:52.489Z,2.20
2023-04-03T13:21:28.657Z,1.60
2023-04-03T13:24:14.167Z,1.55
2023-04-03T13:26:43.074Z,1.67
2023-04-03T13:29:29.948Z,1.85
2023-04-03T13:31:59.495Z,1.63
2023-04-03T13:34:37.495Z,1.60
2023-04-03T13:37:05.417Z,1.75
2023-04-03T13:39:35.672Z,2.00
2023-04-03T13:42:23.923Z,1.52
2023-04-03T13:45:29.765Z,1.90
2023-04-03T13:48:20.246Z,1.55
2023-04-03T13:50:59.859Z,1.50
2023-04-03T13:53:28.281Z,1.90
2023-04-03T13:56:08.818Z,1.50
2023-04-03T13:58:37.363Z,1.25
2023-04-03T14:01:18.569Z,1.63
2023-04-03T14:04:08.015Z,1.25
2023-04-03T14:06:34.737Z,1.50
2023-04-03T14:09:03.332Z,1.60
2023-04-03T14:11:31.800Z,2.00
2023-04-03T14:14:19.740Z,1.02
2023-04-03T14:16:53.257Z,1.40
2023-04-03T14:19:36.697Z,1.83
2023-04-03T14:22:16.961Z,1.50
2023-04-03T14:24:46.845Z,1.30
2023-04-03T14:27:22.995Z,1.30
2023-04-03T14:29:51.454Z,1.60
2023-04-03T14:32:20.567Z,1.35
2023-04-03T14:34:50.500Z,0.93
2023-04-03T14:37:22.177Z,0.82
2023-04-03T14:39:49.151Z,1.40
2023-04-03T14:42:19.945Z,1.30
2023-04-03T14:44:49.194Z,1.00
2023-04-03T14:47:30.528Z,1.45
2023-04-03T14:50:03.111Z,0.93
2023-04-03T14:52:33.877Z,1.33
2023-04-03T14:55:05.768Z,1.45
2023-04-03T14:57:33.179Z,0.93
2023-04-03T15:00:06.674Z,1.00
2023-04-03T15:02:38.373Z,1.20
2023-04-03T15:05:10.243Z,0.88
2023-04-03T15:07:43.856Z,1.10
2023-04-03T15:10:20.681Z,1.85
2023-04-03T15:12:48.411Z,1.00
2023-04-03T15:15:20.823Z,1.00
2023-04-03T15:17:51.281Z,1.00
2023-04-03T15:20:24.474Z,0.90
2023-04-03T15:22:51.142Z,0.70
2023-04-03T15:25:19.052Z,1.05
2023-04-03T15:27:46.239Z,1.00
2023-04-03T15:30:18.310Z,1.25
2023-04-03T15:32:45.273Z,1.10
2023-04-03T15:35:12.350Z,0.95
2023-04-03T15:37:38.977Z,0.80
2023-04-03T15:40:07.408Z,1.10
2023-04-03T15:42:34.113Z,1.00
2023-04-03T15:45:01.129Z,1.02
2023-04-03T15:47:28.420Z,1.40
2023-04-03T15:49:56.027Z,1.23
2023-04-03T15:52:22.774Z,0.95
2023-04-03T15:54:49.587Z,1.02
2023-04-03T15:57:16.303Z,1.15
2023-04-03T15:59:43.076Z,1.00
2023-04-03T16:02:13.750Z,1.00
2023-04-03T16:07:07.419Z,0.90
2023-04-03T16:09:35.250Z,1.00
2023-04-03T16:12:02.948Z,1.10
2023-04-03T16:14:31.794Z,1.00
2023-04-03T16:17:00.099Z,1.30
2023-04-03T16:19:26.827Z,1.27
2023-04-03T16:21:55.359Z,0.95
2023-04-03T16:24:24.027Z,0.82
2023-04-03T16:26:51.018Z,1.13
2023-04-03T16:29:17.727Z,1.10
2023-04-03T16:31:44.465Z,1.02
2023-04-03T16:34:11.542Z,1.10
2023-04-03T16:36:38.632Z,1.00
2023-04-03T16:39:05.610Z,0.73
2023-04-03T16:41:33.041Z,0.82
2023-04-03T16:43:59.830Z,1.02
2023-04-03T16:46:26.991Z,1.10
2023-04-03T16:48:55.015Z,0.98
2023-04-03T16:51:21.641Z,1.60
2023-04-03T16:53:48.294Z,1.20
2023-04-03T16:56:14.896Z,1.10
2023-04-03T16:58:41.792Z,1.20
2023-04-03T17:01:17.385Z,1.10
2023-04-03T17:03:44.487Z,1.15
2023-04-03T17:06:17.212Z,0.90
2023-04-03T17:08:45.931Z,1.15
2023-04-03T17:11:12.691Z,1.77
2023-04-03T17:13:39.526Z,1.00
2023-04-03T17:16:10.716Z,1.23
2023-04-03T17:18:39.642Z,1.42
2023-04-03T17:21:07.083Z,1.30
2023-04-03T17:23:35.706Z,1.33
2023-04-03T17:26:05.730Z,1.23
2023-04-03T17:28:33.598Z,1.27
2023-04-03T17:31:02.067Z,1.45
2023-04-03T17:33:31.196Z,1.58
2023-04-03T17:35:58.977Z,1.40
2023-04-03T17:38:25.993Z,1.45
2023-04-03T17:40:52.714Z,1.38
2023-04-03T17:43:19.372Z,1.20
2023-04-03T17:45:46.047Z,1.25
2023-04-03T17:48:12.872Z,1.38
2023-04-03T17:50:39.579Z,0.90
2023-04-03T17:53:06.248Z,1.25
2023-04-03T17:55:35.655Z,1.42
2023-04-03T17:58:02.540Z,1.13
2023-04-03T18:00:30.669Z,1.60
2023-04-03T18:02:57.342Z,1.50
2023-04-03T18:05:28.965Z,1.20
2023-04-03T18:07:56.999Z,1.20
2023-04-03T18:10:24.900Z,0.90
2023-04-03T18:12:53.068Z,1.40
2023-04-03T18:15:20.478Z,1.30
2023-04-03T18:17:49.952Z,1.48
2023-04-03T18:20:17.865Z,1.50
2023-04-03T18:22:44.863Z,1.70
2023-04-03T18:25:12.267Z,1.52
2023-04-03T18:27:40.261Z,1.60
2023-04-03T18:30:13.380Z,1.42
2023-04-03T18:32:41.253Z,1.40
2023-04-03T18:35:09.340Z,1.98
2023-04-03T18:37:36.683Z,1.40
2023-04-03T18:40:03.610Z,1.60
2023-04-03T18:42:30.667Z,1.45
2023-04-03T18:45:01.756Z,1.42
2023-04-03T18:47:29.228Z,1.65
2023-04-03T18:49:56.126Z,1.23
2023-04-03T18:52:25.188Z,1.23
2023-04-03T18:54:52.062Z,1.38
2023-04-03T18:57:18.790Z,1.27
2023-04-03T18:59:45.477Z,1.52
2023-04-03T19:02:13.635Z,1.38
2023-04-03T19:04:40.938Z,2.10
2023-04-03T19:07:09.360Z,1.40
2023-04-03T19:09:38.445Z,1.02
2023-04-03T19:12:06.278Z,1.33
2023-04-03T19:14:32.987Z,1.30
2023-04-03T19:16:59.758Z,1.70
2023-04-03T19:19:28.051Z,1.30
2023-04-03T19:21:54.753Z,1.40
2023-04-03T19:24:21.766Z,1.70
2023-04-03T19:26:48.499Z,1.70
2023-04-03T19:29:15.881Z,1.05
2023-04-03T19:31:42.849Z,1.45
2023-04-03T19:34:09.743Z,1.55
2023-04-03T19:36:40.195Z,1.27
2023-04-03T19:39:07.636Z,1.77
2023-04-03T19:41:36.703Z,1.42
2023-04-03T19:44:05.129Z,1.40
2023-04-03T19:46:32.183Z,1.30
2023-04-03T19:48:59.495Z,1.75
2023-04-03T19:51:26.577Z,1.55
2023-04-03T19:53:53.331Z,1.27
2023-04-03T19:56:21.401Z,1.67
2023-04-03T19:58:53.779Z,1.63
2023-04-03T20:01:22.444Z,1.38
2023-04-03T20:03:50.142Z,2.10
2023-04-03T20:06:17.059Z,1.48
2023-04-03T20:08:45.647Z,1.70
2023-04-03T20:11:13.032Z,1.30
2023-04-03T20:13:40.037Z,1.67
2023-04-03T20:16:07.729Z,1.85
2023-04-03T20:18:35.287Z,1.30
2023-04-03T20:21:04.995Z,1.52
2023-04-03T20:23:32.136Z,1.48
2023-04-03T20:26:10.901Z,1.80
2023-04-03T20:28:38.740Z,1.85
2023-04-03T20:31:08.727Z,1.52
2023-04-03T20:33:37.039Z,1.80
2023-04-03T20:36:05.266Z,1.73
2023-04-03T20:38:32.117Z,2.08
2023-04-03T20:41:00.171Z,1.48
2023-04-03T20:43:28.313Z,1.65
2023-04-03T20:45:55.589Z,1.50
2023-04-03T20:48:22.380Z,1.60
2023-04-03T20:50:49.101Z,1.63
2023-04-03T20:53:18.061Z,1.77
2023-04-03T20:55:55.487Z,1.50
2023-04-03T20:58:24.921Z,1.90
2023-04-03T21:00:51.709Z,1.40
2023-04-03T21:03:19.231Z,1.60
2023-04-03T21:05:46.746Z,1.50
2023-04-03T21:08:51.114Z,1.40
2023-04-03T21:11:56.136Z,2.08
2023-04-03T21:15:01.946Z,1.55
2023-04-03T21:17:28.506Z,2.28
2023-04-03T21:19:55.214Z,1.90
2023-04-03T21:22:22.601Z,1.73
2023-04-03T21:24:49.314Z,1.92
2023-04-03T21:27:16.223Z,1.70
2023-04-03T21:29:43.634Z,1.60
2023-04-03T21:32:10.507Z,1.80
2023-04-03T21:34:37.150Z,1.55
2023-04-03T21:37:05.630Z,1.58
2023-04-03T21:39:32.987Z,1.65
2023-04-03T21:42:00.077Z,1.52
2023-04-03T21:44:28.312Z,1.58
2023-04-03T21:46:56.620Z,1.80
2023-04-03T21:49:24.347Z,1.58
2023-04-03T21:51:52.251Z,1.50
2023-04-03T21:54:19.947Z,2.10
2023-04-03T21:56:51.402Z,1.67
2023-04-03T21:59:18.445Z,1.70
2023-04-03T22:01:45.287Z,1.60
2023-04-03T22:04:12.556Z,1.52
2023-04-03T22:06:40.866Z,1.85
2023-04-03T22:09:07.975Z,1.75
2023-04-03T22:11:34.602Z,1.88
2023-04-03T22:14:01.300Z,1.63
2023-04-03T22:16:28.027Z,1.92
2023-04-03T22:18:56.886Z,2.38
2023-04-03T22:21:23.671Z,1.85
2023-04-03T22:23:50.643Z,1.75
2023-04-03T22:26:17.358Z,1.23
2023-04-03T22:28:46.372Z,2.65
2023-04-03T22:31:14.308Z,1.67
2023-04-03T22:33:42.334Z,1.70
2023-04-03T22:36:12.158Z,1.80
2023-04-03T22:38:39.522Z,1.50
2023-04-03T22:41:07.699Z,1.65
2023-04-03T22:43:36.275Z,1.77
2023-04-03T22:46:06.163Z,1.67
2023-04-03T22:48:33.442Z,1.85
2023-04-03T22:51:01.031Z,2.53
2023-04-03T22:53:28.554Z,1.63
2023-04-03T22:55:59.363Z,1.42
2023-04-03T23:01:07.958Z,1.35
2023-04-03T23:03:36.134Z,1.38
2023-04-03T23:06:04.353Z,1.83
2023-04-03T23:08:32.608Z,1.55
2023-04-03T23:11:00.145Z,1.63
2023-04-03T23:13:27.461Z,1.63
2023-04-03T23:15:59.099Z,1.80
2023-04-03T23:18:29.371Z,1.60
2023-04-03T23:20:57.092Z,2.38
2023-04-03T23:23:25.159Z,2.05
2023-04-03T23:25:56.822Z,1.52
2023-04-03T23:28:23.663Z,1.65
2023-04-03T23:30:52.659Z,1.63
2023-04-03T23:33:19.306Z,2.10
2023-04-03T23:35:48.351Z,2.53
2023-04-03T23:38:15.759Z,1.88
2023-04-03T23:40:42.925Z,2.25
2023-04-03T23:43:09.736Z,1.80
2023-04-03T23:45:36.758Z,1.90
2023-04-03T23:48:03.743Z,1.83
2023-04-03T23:50:30.651Z,2.10
2023-04-03T23:52:57.738Z,2.10
2023-04-03T23:55:24.518Z,2.15
2023-04-03T23:57:51.168Z,1.80
